Time;durP1;ratioP1;P1;durP2;ratioP2;P2;SDS_P1;SDS_P2;PMS_P1;PMS_P2;Temp;Humidity;BMP_temperature;BMP_pressure;BME280_temperature;BME280_humidity;BME280_pressure;Samples;Min_cycle;Max_cycle;Signal;HPM_P1;HPM_P2
2023/01/03 00:01:22;;;;;;;4.70;1.90;;;;;;;16.01;100.00;97294.44;5058783;28;20076;-45
2023/01/03 00:03:53;;;;;;;6.05;2.17;;;;;;;15.93;100.00;97305.00;5055499;28;20095;-41
2023/01/03 00:06:22;;;;;;;7.35;2.67;;;;;;;16.01;100.00;97291.78;5056800;28;20084;-40
2023/01/03 00:08:51;;;;;;;6.53;2.37;;;;;;;16.06;100.00;97292.94;5057279;28;21860;-40
2023/01/03 00:12:22;;;;;;;5.25;2.10;;;;;;;16.03;100.00;97301.25;5058211;28;20084;-45
2023/01/03 00:14:16;;;;;;;5.97;1.90;;;;;;;16.10;100.00;97291.66;5056351;28;20076;-42
2023/01/03 00:16:44;;;;;;;5.90;2.00;;;;;;;16.12;100.00;97299.47;5054082;28;20122;-45
2023/01/03 00:19:14;;;;;;;5.63;2.05;;;;;;;16.17;100.00;97304.31;5059163;28;20076;-42
2023/01/03 00:21:43;;;;;;;5.20;2.15;;;;;;;15.90;100.00;97307.00;5060538;28;20076;-42
2023/01/03 00:24:11;;;;;;;8.70;2.63;;;;;;;16.05;100.00;97307.25;5055810;28;20088;-37
2023/01/03 00:26:40;;;;;;;6.93;2.55;;;;;;;15.95;100.00;97303.88;5054698;28;20068;-41
2023/01/03 00:29:08;;;;;;;5.35;2.65;;;;;;;15.83;100.00;97305.16;5062416;28;20075;-36
2023/01/03 00:31:39;;;;;;;8.23;2.92;;;;;;;15.79;100.00;97303.75;5054930;28;20122;-38
2023/01/03 00:34:08;;;;;;;9.00;2.92;;;;;;;15.73;100.00;97305.25;5055942;28;20081;-38
2023/01/03 00:36:36;;;;;;;7.63;3.17;;;;;;;15.70;100.00;97304.72;5057975;28;20085;-39
2023/01/03 00:39:05;;;;;;;7.57;2.58;;;;;;;15.46;100.00;97308.00;5049482;28;20084;-38
2023/01/03 00:41:34;;;;;;;5.72;2.72;;;;;;;15.46;100.00;97324.78;5055816;28;20072;-44
2023/01/03 00:44:02;;;;;;;5.68;2.53;;;;;;;15.16;100.00;97329.50;5053968;28;20568;-40
2023/01/03 00:46:31;;;;;;;2.17;1.98;;;;;;;14.93;100.00;97326.47;5059721;28;20083;-40
2023/01/03 00:49:01;;;;;;;3.63;2.10;;;;;;;14.91;100.00;97315.16;5059659;28;20079;-43
2023/01/03 00:51:31;;;;;;;2.63;2.10;;;;;;;14.79;100.00;97315.50;5055715;28;20085;-40
2023/01/03 00:54:01;;;;;;;2.53;1.70;;;;;;;14.93;100.00;97320.28;5063731;28;20080;-41
2023/01/03 00:56:31;;;;;;;5.18;1.70;;;;;;;14.94;100.00;97322.81;5055227;28;20076;-39
2023/01/03 00:58:59;;;;;;;2.05;1.30;;;;;;;14.57;100.00;97320.25;5052641;28;20081;-44
2023/01/03 01:01:30;;;;;;;1.88;1.35;;;;;;;14.48;100.00;97326.41;5056938;28;20475;-46
2023/01/03 01:04:03;;;;;;;2.35;1.48;;;;;;;14.72;100.00;97336.50;5055387;28;20081;-43
2023/01/03 01:06:33;;;;;;;2.28;1.50;;;;;;;14.70;100.00;97338.50;5052371;28;20521;-38
2023/01/03 01:09:04;;;;;;;1.83;1.50;;;;;;;14.45;100.00;97339.97;5051915;28;20099;-45
2023/01/03 01:11:32;;;;;;;2.63;1.13;;;;;;;14.39;100.00;97338.75;5055934;28;20072;-37
2023/01/03 01:14:01;;;;;;;2.15;0.90;;;;;;;14.44;100.00;97341.78;5057302;28;20106;-47
2023/01/03 01:16:31;;;;;;;1.80;1.00;;;;;;;14.63;100.00;97345.38;5060229;28;20072;-42
2023/01/03 01:19:01;;;;;;;2.35;0.90;;;;;;;14.41;100.00;97344.72;5052367;28;20362;-45
2023/01/03 01:21:30;;;;;;;1.43;0.97;;;;;;;14.19;100.00;97347.78;5056473;28;20081;-42
2023/01/03 01:23:59;;;;;;;1.23;0.93;;;;;;;14.31;100.00;97346.59;5055054;28;20064;-42
2023/01/03 01:26:28;;;;;;;1.67;1.00;;;;;;;14.25;100.00;97347.19;5056207;28;20087;-38
2023/01/03 01:28:56;;;;;;;2.15;0.90;;;;;;;14.31;100.00;97348.41;5060795;28;20600;-40
2023/01/03 01:31:25;;;;;;;1.30;1.10;;;;;;;14.16;100.00;97346.25;5046476;28;20075;-41
2023/01/03 01:33:55;;;;;;;4.10;1.10;;;;;;;14.45;100.00;97338.19;5054172;28;20088;-40
2023/01/03 01:36:27;;;;;;;1.20;0.95;;;;;;;14.30;100.00;97344.94;5055051;28;20065;-50
2023/01/03 01:38:58;;;;;;;2.13;0.90;;;;;;;14.42;100.00;97346.44;5054320;28;20087;-43
2023/01/03 01:44:50;;;;;;;1.05;0.75;;;;;;;14.32;100.00;97344.81;5057940;28;20073;-42
2023/01/03 01:47:40;;;;;;;1.40;0.90;;;;;;;14.16;100.00;97350.72;5053925;28;20084;-38
2023/01/03 01:50:19;;;;;;;0.80;0.70;;;;;;;14.23;100.00;97357.94;5059150;28;20087;-40
2023/01/03 01:52:52;;;;;;;2.40;0.70;;;;;;;14.22;100.00;97363.41;5053885;28;20076;-37
2023/01/03 01:55:23;;;;;;;1.60;1.02;;;;;;;14.13;100.00;97367.75;5054052;28;20072;-48
2023/01/03 01:57:52;;;;;;;0.70;0.60;;;;;;;14.22;100.00;97372.19;5063620;28;20083;-40
2023/01/03 02:00:21;;;;;;;0.85;0.80;;;;;;;14.04;100.00;97373.94;5057248;28;20103;-44
2023/01/03 02:02:51;;;;;;;0.80;0.60;;;;;;;14.37;100.00;97372.56;5057509;28;20452;-43
2023/01/03 02:05:20;;;;;;;0.75;0.75;;;;;;;14.23;100.00;97367.72;5056707;28;20495;-38
2023/01/03 02:07:51;;;;;;;0.60;0.60;;;;;;;14.30;100.00;97371.47;5066597;28;20091;-49
2023/01/03 02:10:25;;;;;;;0.60;0.60;;;;;;;14.06;100.00;97374.63;5059346;28;20076;-39
2023/01/03 02:13:04;;;;;;;0.60;0.60;;;;;;;14.10;100.00;97383.94;5060226;28;20081;-41
2023/01/03 02:15:44;;;;;;;2.85;0.60;;;;;;;14.14;100.00;97395.97;5062481;28;20098;-42
2023/01/03 02:18:24;;;;;;;0.65;0.60;;;;;;;14.15;100.00;97392.34;5054614;28;20512;-41
2023/01/03 02:21:15;;;;;;;1.35;0.60;;;;;;;14.29;100.00;97387.53;5057645;28;20072;-39
2023/01/03 02:24:31;;;;;;;1.13;0.77;;;;;;;14.39;100.00;97388.34;5055749;28;20087;-37
2023/01/03 02:27:03;;;;;;;1.15;0.77;;;;;;;14.24;100.00;97390.63;5055924;28;20068;-38
2023/01/03 02:30:03;;;;;;;0.57;0.50;;;;;;;13.98;100.00;97399.22;5063117;28;20084;-44
2023/01/03 02:32:37;;;;;;;1.17;0.70;;;;;;;14.38;100.00;97398.13;5057939;28;20076;-38
2023/01/03 02:35:09;;;;;;;1.13;1.08;;;;;;;13.86;100.00;97396.84;5056842;28;20102;-45
2023/01/03 02:37:40;;;;;;;1.48;1.38;;;;;;;13.91;100.00;97392.81;5056036;28;21539;-42
2023/01/03 02:40:14;;;;;;;1.30;1.20;;;;;;;13.78;100.00;97392.25;5060196;28;20091;-40
2023/01/03 02:43:00;;;;;;;1.50;1.40;;;;;;;14.06;100.00;97384.38;5055318;28;20492;-39
2023/01/03 02:45:45;;;;;;;1.30;1.20;;;;;;;14.20;100.00;97389.22;5054255;28;20084;-43
2023/01/03 02:48:18;;;;;;;0.57;0.50;;;;;;;14.15;100.00;97397.63;5061624;28;20083;-41
2023/01/03 02:50:49;;;;;;;1.48;0.60;;;;;;;14.15;100.00;97394.97;5060647;28;20076;-41
2023/01/03 02:53:23;;;;;;;0.70;0.70;;;;;;;14.06;100.00;97395.00;5062648;28;20103;-39
2023/01/03 02:55:52;;;;;;;1.88;0.80;;;;;;;14.22;100.00;97388.13;5054001;28;20532;-39
2023/01/03 02:58:23;;;;;;;1.40;1.00;;;;;;;14.37;100.00;97385.00;5057533;28;20079;-44
2023/01/03 03:00:55;;;;;;;1.80;1.00;;;;;;;13.83;100.00;97394.47;5053684;28;20084;-42
2023/01/03 03:03:27;;;;;;;1.20;1.10;;;;;;;13.89;100.00;97397.41;5053291;28;20075;-45
2023/01/03 03:06:01;;;;;;;1.90;0.80;;;;;;;13.89;100.00;97405.34;5054016;28;20085;-49
2023/01/03 03:08:30;;;;;;;0.57;0.50;;;;;;;13.77;100.00;97402.03;5055800;28;20080;-45
2023/01/03 03:13:47;;;;;;;1.17;0.57;;;;;;;13.71;100.00;97397.28;5061208;28;20080;-39
2023/01/03 03:16:46;;;;;;;0.80;0.80;;;;;;;14.14;100.00;97392.47;5061697;28;20080;-46
2023/01/03 03:24:53;;;;;;;1.00;0.90;;;;;;;14.57;100.00;97386.63;5054974;28;20071;-44
2023/01/03 03:30:12;;;;;;;1.67;0.82;;;;;;;14.36;100.00;97386.81;5050852;28;20091;-42
2023/01/03 03:32:41;;;;;;;0.90;0.90;;;;;;;14.07;100.00;97404.63;5050290;28;20473;-43
2023/01/03 03:35:14;;;;;;;0.90;0.60;;;;;;;14.14;100.00;97403.06;5059302;28;20088;-39
2023/01/03 03:37:45;;;;;;;0.90;0.90;;;;;;;14.08;100.00;97404.50;5054301;28;20502;-42
2023/01/03 03:45:54;;;;;;;0.50;0.50;;;;;;;13.52;100.00;97400.81;5053755;28;20080;-42
2023/01/03 03:48:27;;;;;;;1.08;0.68;;;;;;;13.98;100.00;97393.91;5058420;28;20584;-44
2023/01/03 03:51:00;;;;;;;0.82;0.60;;;;;;;14.01;100.00;97398.09;5056957;28;20080;-41
2023/01/03 03:53:32;;;;;;;0.93;0.60;;;;;;;14.02;100.00;97392.63;5059485;28;20072;-39
2023/01/03 03:56:05;;;;;;;0.80;0.60;;;;;;;14.13;100.00;97391.63;5053590;28;20083;-39
2023/01/03 03:58:38;;;;;;;0.63;0.50;;;;;;;14.39;100.00;97386.53;5063114;28;20068;-37
2023/01/03 04:01:08;;;;;;;1.05;0.60;;;;;;;14.41;100.00;97379.22;5052380;28;20484;-43
2023/01/03 04:03:37;;;;;;;0.50;0.50;;;;;;;14.44;100.00;97381.59;5054021;28;20080;-41
2023/01/03 04:06:10;;;;;;;1.65;0.80;;;;;;;14.53;100.00;97382.59;5051647;28;20563;-42
2023/01/03 04:08:38;;;;;;;0.63;0.50;;;;;;;14.63;100.00;97385.19;5052958;28;20071;-41
2023/01/03 04:11:07;;;;;;;1.45;0.60;;;;;;;14.72;100.00;97390.44;5062193;28;20072;-41
2023/01/03 04:13:37;;;;;;;1.60;0.60;;;;;;;14.78;100.00;97386.38;5061758;28;20194;-39
2023/01/03 04:16:06;;;;;;;1.65;0.60;;;;;;;14.76;100.00;97379.53;5056545;28;20087;-46
2023/01/03 04:18:35;;;;;;;1.08;0.52;;;;;;;14.77;100.00;97392.66;5050630;28;20087;-38
2023/01/03 04:21:03;;;;;;;0.65;0.50;;;;;;;14.76;100.00;97390.97;5060907;28;20080;-41
2023/01/03 04:23:33;;;;;;;1.67;0.50;;;;;;;14.72;100.00;97395.75;5055239;28;20532;-46
2023/01/03 04:26:01;;;;;;;0.50;0.30;;;;;;;14.37;100.00;97401.75;5057428;28;20084;-41
2023/01/03 04:28:29;;;;;;;0.50;0.40;;;;;;;14.16;100.00;97411.72;5052597;28;20083;-48
2023/01/03 04:30:58;;;;;;;0.68;0.50;;;;;;;14.34;100.00;97412.66;5050825;28;20084;-39
2023/01/03 04:33:26;;;;;;;0.52;0.50;;;;;;;14.36;100.00;97404.56;5055973;28;20083;-37
2023/01/03 04:35:54;;;;;;;0.75;0.50;;;;;;;13.78;100.00;97406.34;5055619;28;20079;-37
2023/01/03 04:38:23;;;;;;;0.40;0.40;;;;;;;14.37;100.00;97399.09;5062789;28;20069;-38
2023/01/03 04:40:52;;;;;;;0.70;0.50;;;;;;;14.45;100.00;97404.53;5055148;28;20087;-36
2023/01/03 04:46:06;;;;;;;0.73;0.50;;;;;;;14.17;100.00;97422.19;5052145;28;20079;-42
2023/01/03 04:48:35;;;;;;;0.85;0.73;;;;;;;14.32;100.00;97421.75;5052611;28;20087;-39
2023/01/03 04:51:03;;;;;;;0.70;0.50;;;;;;;14.29;100.00;97420.22;5050149;28;20079;-37
2023/01/03 04:53:31;;;;;;;0.73;0.50;;;;;;;13.97;100.00;97423.19;5051383;28;20457;-36
2023/01/03 04:56:01;;;;;;;1.58;0.57;;;;;;;13.91;100.00;97416.66;5055296;28;20820;-37
2023/01/03 04:58:29;;;;;;;0.70;0.60;;;;;;;14.13;100.00;97412.84;5054617;28;20103;-40
2023/01/03 05:01:01;;;;;;;0.77;0.40;;;;;;;14.29;100.00;97404.28;5049505;28;20085;-42
2023/01/03 05:03:30;;;;;;;0.93;0.60;;;;;;;14.37;100.00;97414.19;5056586;28;20099;-39
2023/01/03 05:05:59;;;;;;;0.45;0.43;;;;;;;14.33;100.00;97418.94;5058073;28;20217;-38
2023/01/03 05:08:28;;;;;;;0.70;0.47;;;;;;;14.30;100.00;97431.66;5053700;28;20084;-37
2023/01/03 05:10:56;;;;;;;0.88;0.50;;;;;;;13.99;100.00;97437.16;5054580;28;20079;-39
2023/01/03 05:13:26;;;;;;;1.38;0.88;;;;;;;14.00;100.00;97429.09;5061841;28;20100;-39
2023/01/03 05:15:54;;;;;;;0.70;0.47;;;;;;;14.01;100.00;97428.09;5058974;28;20140;-37
2023/01/03 05:18:22;;;;;;;0.73;0.50;;;;;;;13.34;100.00;97430.75;5050743;28;20095;-39
2023/01/03 05:26:23;;;;;;;1.73;0.50;;;;;;;13.82;100.00;97446.66;5051658;28;20085;-39
2023/01/03 05:28:53;;;;;;;0.70;0.40;;;;;;;13.72;100.00;97437.88;5059150;28;20504;-41
2023/01/03 05:31:21;;;;;;;;;;;;;;;13.51;100.00;97449.47;5060519;28;20084;-48
2023/01/03 05:33:50;;;;;;;0.52;0.50;;;;;;;13.93;100.00;97449.16;5052797;28;19979;-42
2023/01/03 05:36:18;;;;;;;0.85;0.60;;;;;;;13.91;100.00;97451.13;5060606;28;20080;-42
2023/01/03 05:38:46;;;;;;;1.67;0.60;;;;;;;13.41;100.00;97448.63;5055527;28;20075;-42
2023/01/03 05:41:58;;;;;;;2.47;0.77;;;;;;;13.32;100.00;97449.47;5066578;28;20079;-41
2023/01/03 05:44:06;;;;;;;0.50;0.50;;;;;;;13.96;100.00;97445.41;5055727;28;20060;-45
2023/01/03 05:46:34;;;;;;;1.23;0.70;;;;;;;14.10;100.00;97446.78;5051284;28;20103;-42
2023/01/03 05:49:03;;;;;;;1.10;0.60;;;;;;;14.20;100.00;97456.38;5055975;28;20453;-40
2023/01/03 05:51:31;;;;;;;1.27;0.80;;;;;;;14.31;100.00;97465.16;5054248;28;20073;-40
2023/01/03 05:54:00;;;;;;;1.25;0.70;;;;;;;14.27;100.00;97461.97;5056401;28;20084;-44
2023/01/03 05:56:28;;;;;;;0.90;0.63;;;;;;;14.15;100.00;97461.31;5054134;28;20084;-41
2023/01/03 05:58:57;;;;;;;1.00;0.70;;;;;;;13.96;100.00;97469.28;5054645;28;20076;-40
2023/01/03 06:01:27;;;;;;;0.82;0.60;;;;;;;14.15;100.00;97466.59;5061980;28;20085;-47
2023/01/03 06:03:56;;;;;;;1.25;0.68;;;;;;;14.33;100.00;97457.91;5061010;28;20487;-43
2023/01/03 06:06:24;;;;;;;1.08;0.70;;;;;;;14.31;100.00;97451.91;5057748;28;20072;-42
2023/01/03 06:08:53;;;;;;;1.63;0.68;;;;;;;14.20;100.00;97453.75;5058318;28;20080;-42
2023/01/03 06:11:21;;;;;;;1.73;0.80;;;;;;;14.09;100.00;97455.72;5063363;28;20080;-46
2023/01/03 06:13:50;;;;;;;1.17;0.80;;;;;;;14.14;100.00;97453.47;5052151;28;20093;-46
2023/01/03 06:19:08;;;;;;;1.50;0.85;;;;;;;13.90;100.00;97457.44;5060902;28;20559;-48
2023/01/03 06:21:36;;;;;;;1.33;0.70;;;;;;;14.08;100.00;97457.53;5055850;28;20099;-47
2023/01/03 06:24:05;;;;;;;0.77;0.70;;;;;;;14.16;100.00;97456.81;5061710;28;20080;-41
2023/01/03 06:26:34;;;;;;;1.33;0.70;;;;;;;14.20;100.00;97463.50;5063001;28;20079;-38
2023/01/03 06:29:02;;;;;;;1.00;0.73;;;;;;;14.26;100.00;97468.25;5055633;28;20517;-46
2023/01/03 06:31:31;;;;;;;1.08;0.80;;;;;;;14.29;100.00;97475.94;5058701;28;20536;-45
2023/01/03 06:33:59;;;;;;;0.95;0.70;;;;;;;14.34;100.00;97471.03;5062330;28;20071;-39
2023/01/03 06:36:30;;;;;;;2.05;0.75;;;;;;;14.24;100.00;97484.31;5052383;28;20084;-40
2023/01/03 06:38:59;;;;;;;0.80;0.80;;;;;;;14.14;100.00;97482.66;5060948;28;20119;-42
2023/01/03 06:41:27;;;;;;;0.70;0.65;;;;;;;14.25;100.00;97480.69;5055526;28;20083;-41
2023/01/03 06:43:55;;;;;;;0.93;0.80;;;;;;;14.20;100.00;97471.47;5060694;28;20076;-40
2023/01/03 06:54:48;;;;;;;1.17;0.80;;;;;;;13.90;100.00;97483.94;5063663;28;20075;-40
2023/01/03 06:57:16;;;;;;;1.30;0.90;;;;;;;13.87;100.00;97484.22;5056645;28;20092;-40
2023/01/03 06:59:54;;;;;;;0.80;0.80;;;;;;;13.81;100.00;97489.25;5052124;28;20559;-42
2023/01/03 07:02:23;;;;;;;2.13;0.90;;;;;;;13.85;100.00;97491.47;5053136;28;20088;-43
2023/01/03 07:04:51;;;;;;;1.10;0.88;;;;;;;13.83;100.00;97488.09;5055988;28;20742;-42
2023/01/03 07:07:21;;;;;;;2.55;1.10;;;;;;;13.88;100.00;97493.84;5068854;28;20485;-48
2023/01/03 07:09:49;;;;;;;3.10;0.80;;;;;;;13.42;100.00;97508.59;5059120;28;20096;-44
2023/01/03 07:15:05;;;;;;;1.38;0.80;;;;;;;13.60;100.00;97495.50;5058341;28;20081;-43
2023/01/03 07:17:33;;;;;;;3.45;0.93;;;;;;;13.46;100.00;97503.88;5052055;28;20532;-44
2023/01/03 07:20:02;;;;;;;3.25;1.02;;;;;;;13.57;100.00;97502.91;5059611;28;20086;-37
2023/01/03 07:22:32;;;;;;;3.95;0.90;;;;;;;13.09;100.00;97519.50;5058004;28;20601;-43
2023/01/03 07:25:00;;;;;;;1.70;1.13;;;;;;;12.75;100.00;97519.75;5053561;28;20095;-40
2023/01/03 07:27:28;;;;;;;1.55;1.20;;;;;;;12.89;100.00;97516.75;5059248;28;20080;-39
2023/01/03 07:29:57;;;;;;;1.33;1.08;;;;;;;13.21;100.00;97518.41;5059394;28;20103;-46
2023/01/03 07:32:25;;;;;;;1.30;1.00;;;;;;;13.56;100.00;97520.63;5050492;28;20119;-42
2023/01/03 07:34:53;;;;;;;2.08;1.20;;;;;;;13.64;100.00;97526.06;5054176;28;20079;-39
2023/01/03 07:37:22;;;;;;;2.63;1.17;;;;;;;13.47;100.00;97538.16;5055110;28;20041;-40
2023/01/03 07:39:52;;;;;;;1.80;1.13;;;;;;;13.74;100.00;97531.38;5061718;28;20068;-39
2023/01/03 07:45:07;;;;;;;2.05;1.20;;;;;;;13.94;100.00;97533.06;5056716;28;20979;-40
2023/01/03 07:47:36;;;;;;;3.38;1.30;;;;;;;13.99;100.00;97540.59;5058194;28;20076;-42
2023/01/03 07:50:05;;;;;;;4.10;1.40;;;;;;;13.96;100.00;97539.06;5056413;28;20087;-43
2023/01/03 07:52:33;;;;;;;2.13;1.20;;;;;;;14.00;100.00;97537.81;5054519;28;20084;-38
2023/01/03 07:55:03;;;;;;;2.60;1.33;;;;;;;13.99;100.00;97541.44;5051802;28;20071;-38
2023/01/03 07:57:32;;;;;;;2.22;1.35;;;;;;;13.93;100.00;97534.03;5055139;28;20622;-38
2023/01/03 08:00:00;;;;;;;1.50;1.00;;;;;;;13.82;100.00;97533.34;5057085;28;20096;-49
2023/01/03 08:02:29;;;;;;;1.65;1.08;;;;;;;13.86;100.00;97538.22;5066984;28;20091;-39
2023/01/03 08:04:57;;;;;;;2.13;1.40;;;;;;;13.81;100.00;97537.81;5054089;28;20083;-38
2023/01/03 08:07:26;;;;;;;4.28;1.50;;;;;;;13.90;100.00;97541.44;5062933;28;20091;-38
2023/01/03 08:15:27;;;;;;;2.70;1.50;;;;;;;14.02;100.00;97549.13;5059170;28;20087;-41
2023/01/03 08:17:55;;;;;;;1.58;1.30;;;;;;;14.03;100.00;97547.28;5052204;28;20095;-38
2023/01/03 08:20:24;;;;;;;2.58;1.40;;;;;;;14.08;100.00;97549.56;5066288;28;20080;-40
2023/01/03 08:22:52;;;;;;;3.13;1.40;;;;;;;14.10;100.00;97551.06;5051994;28;20088;-41
2023/01/03 08:25:21;;;;;;;1.77;1.25;;;;;;;14.09;100.00;97557.34;5055541;28;20080;-42
2023/01/03 08:27:50;;;;;;;3.33;1.70;;;;;;;13.88;100.00;97557.50;5049581;28;20077;-40
2023/01/03 08:30:19;;;;;;;2.57;1.83;;;;;;;13.77;100.00;97561.09;5049936;28;20088;-39
2023/01/03 08:32:47;;;;;;;2.78;1.80;;;;;;;13.85;100.00;97567.53;5055942;28;20087;-40
2023/01/03 08:35:16;;;;;;;4.75;1.77;;;;;;;13.90;100.00;97570.59;5050426;28;20088;-38
2023/01/03 08:37:45;;;;;;;2.42;1.55;;;;;;;13.78;100.00;97572.53;5064209;28;20088;-41
2023/01/03 08:40:16;;;;;;;3.03;1.70;;;;;;;13.89;100.00;97571.59;5058536;28;20083;-38
2023/01/03 08:42:45;;;;;;;2.72;1.58;;;;;;;13.61;100.00;97589.13;5048890;28;20080;-45
2023/01/03 08:45:17;;;;;;;3.30;2.00;;;;;;;13.17;100.00;97585.84;5052419;28;20092;-39
2023/01/03 08:47:45;;;;;;;3.17;1.70;;;;;;;13.49;100.00;97586.59;5048929;28;20091;-40
2023/01/03 08:50:14;;;;;;;2.88;1.70;;;;;;;13.46;100.00;97588.66;5051645;28;20089;-40
2023/01/03 08:52:42;;;;;;;2.47;1.55;;;;;;;13.86;100.00;97591.25;5053587;28;20095;-46
2023/01/03 08:55:11;;;;;;;3.85;2.08;;;;;;;14.05;100.00;97582.50;5054377;28;20095;-45
2023/01/03 08:57:39;;;;;;;2.78;1.95;;;;;;;13.94;100.00;97586.13;5059923;28;20085;-42
2023/01/03 09:00:09;;;;;;;2.53;1.70;;;;;;;14.09;100.00;97589.19;5067496;28;20099;-39
2023/01/03 09:02:39;;;;;;;4.18;2.15;;;;;;;14.14;100.00;97594.06;5054307;28;20080;-39
2023/01/03 09:05:08;;;;;;;2.83;1.90;;;;;;;14.17;100.00;97594.63;5061075;28;20087;-41
2023/01/03 09:07:37;;;;;;;3.53;2.17;;;;;;;13.91;100.00;97604.94;5062514;28;20076;-38
2023/01/03 09:10:06;;;;;;;3.75;2.40;;;;;;;14.14;100.00;97600.25;5061669;28;20080;-44
2023/01/03 09:12:35;;;;;;;5.03;2.50;;;;;;;13.81;100.00;97593.47;5060643;28;20087;-38
2023/01/03 09:15:03;;;;;;;7.97;2.28;;;;;;;14.28;100.00;97606.94;5060651;28;20088;-37
2023/01/03 09:17:32;;;;;;;3.63;2.20;;;;;;;13.82;100.00;97608.41;5054353;28;20597;-40
2023/01/03 09:20:02;;;;;;;4.60;2.30;;;;;;;13.88;100.00;97613.19;5057032;28;20170;-40
2023/01/03 09:22:30;;;;;;;5.25;2.60;;;;;;;14.05;100.00;97619.63;5059770;28;20107;-48
2023/01/03 09:24:58;;;;;;;3.13;2.20;;;;;;;14.30;100.00;97612.94;5052407;28;20080;-43
2023/01/03 09:27:27;;;;;;;3.53;2.33;;;;;;;14.25;100.00;97623.13;5051955;28;20085;-41
2023/01/03 09:29:55;;;;;;;3.10;2.15;;;;;;;14.29;100.00;97616.56;5059560;28;20096;-42
2023/01/03 09:32:23;;;;;;;3.92;2.58;;;;;;;14.42;100.00;97611.00;5063753;28;20094;-40
2023/01/03 09:34:52;;;;;;;5.28;2.72;;;;;;;14.66;100.00;97615.91;5051747;28;20513;-39
2023/01/03 09:37:21;;;;;;;3.20;2.40;;;;;;;14.59;100.00;97610.31;5064900;28;20436;-43
2023/01/03 09:39:50;;;;;;;5.53;2.80;;;;;;;14.67;100.00;97615.75;5057916;28;20487;-41
2023/01/03 09:45:08;;;;;;;4.32;2.80;;;;;;;14.82;100.00;97617.94;5059347;28;20068;-41
2023/01/03 09:47:38;;;;;;;4.55;2.75;;;;;;;14.76;100.00;97615.84;5052285;28;20053;-42
2023/01/03 09:50:07;;;;;;;3.28;2.22;;;;;;;14.53;100.00;97618.00;5055356;28;20069;-43
2023/01/03 10:05:06;;;;;;;3.58;2.55;;;;;;;14.46;100.00;97609.72;5051333;28;20076;-40
2023/01/03 10:07:50;;;;;;;5.85;2.70;;;;;;;14.62;100.00;97606.50;5062644;28;20520;-42
2023/01/03 10:10:27;;;;;;;3.65;2.53;;;;;;;14.58;100.00;97608.63;5064067;28;20083;-40
2023/01/03 10:13:03;;;;;;;5.93;2.60;;;;;;;14.69;100.00;97604.97;5055727;28;20071;-44
2023/01/03 10:15:39;;;;;;;4.38;2.90;;;;;;;14.27;100.00;97601.75;5051753;28;20103;-41
2023/01/03 10:18:16;;;;;;;4.70;2.97;;;;;;;14.53;100.00;97604.72;5054478;28;20060;-41
2023/01/03 10:20:49;;;;;;;4.82;2.78;;;;;;;14.68;100.00;97596.16;5051447;28;20072;-45
2023/01/03 10:23:18;;;;;;;6.55;2.65;;;;;;;14.53;100.00;97602.06;5061766;28;20072;-42
2023/01/03 10:25:48;;;;;;;4.25;2.80;;;;;;;14.40;100.00;97595.19;5054013;28;20083;-39
2023/01/03 10:28:19;;;;;;;5.20;2.50;;;;;;;14.37;100.00;97592.81;5055867;28;20132;-39
2023/01/03 10:30:57;;;;;;;3.53;2.70;;;;;;;14.65;100.00;97591.13;5053518;28;20064;-41
2023/01/03 10:33:38;;;;;;;4.15;2.42;;;;;;;14.72;100.00;97596.72;5050546;28;20099;-40
2023/01/03 10:36:08;;;;;;;5.75;2.72;;;;;;;14.66;100.00;97589.34;5061034;28;20076;-41
2023/01/03 10:38:37;;;;;;;4.45;2.85;;;;;;;14.71;100.00;97595.88;5050584;28;20072;-41
2023/01/03 10:41:21;;;;;;;3.33;2.35;;;;;;;14.47;100.00;97593.66;5063484;28;20122;-40
2023/01/03 10:43:57;;;;;;;4.38;2.67;;;;;;;14.65;100.00;97600.91;5060226;28;20081;-43
2023/01/03 10:46:26;;;;;;;3.80;2.30;;;;;;;14.76;100.00;97592.78;5052310;28;20087;-40
2023/01/03 10:49:12;;;;;;;4.47;2.63;;;;;;;14.19;100.00;97594.50;5052997;28;20088;-42
2023/01/03 10:51:59;;;;;;;4.68;2.45;;;;;;;14.39;100.00;97598.00;5060341;28;20416;-42
2023/01/03 10:54:46;;;;;;;4.05;2.28;;;;;;;14.06;100.00;97589.47;5053907;28;20115;-44
2023/01/03 10:57:35;;;;;;;4.13;2.38;;;;;;;13.76;100.00;97595.69;5059245;28;20096;-42
2023/01/03 11:00:21;;;;;;;4.57;2.70;;;;;;;13.93;100.00;97595.03;5051038;28;20520;-40
2023/01/03 11:02:50;;;;;;;4.13;2.70;;;;;;;14.08;100.00;97592.00;5063234;28;20213;-41
2023/01/03 11:05:21;;;;;;;5.38;2.58;;;;;;;13.64;100.00;97594.16;5057313;28;20084;-47
2023/01/03 11:07:53;;;;;;;4.43;2.80;;;;;;;14.39;100.00;97588.22;5055784;28;20084;-43
2023/01/03 11:10:22;;;;;;;4.78;2.90;;;;;;;14.59;100.00;97590.88;5056775;28;20077;-42
2023/01/03 11:12:53;;;;;;;4.60;2.85;;;;;;;14.06;100.00;97586.81;5055174;28;20477;-43
2023/01/03 11:15:24;;;;;;;;;;;;;;;14.52;100.00;97581.78;5062014;28;20092;-44
2023/01/03 11:17:53;;;;;;;4.15;2.38;;;;;;;14.83;100.00;97574.47;5053144;28;19956;-44
2023/01/03 11:20:29;;;;;;;4.10;2.85;;;;;;;14.70;100.00;97586.25;5054640;28;20084;-42
2023/01/03 11:23:02;;;;;;;4.00;2.50;;;;;;;14.80;100.00;97577.44;5059674;28;20571;-43
2023/01/03 11:25:39;;;;;;;5.13;2.70;;;;;;;15.08;100.00;97573.84;5058644;28;20405;-43
2023/01/03 11:28:29;;;;;;;6.90;2.60;;;;;;;15.28;100.00;97571.97;5049783;28;20081;-41
2023/01/03 11:31:00;;;;;;;4.20;2.90;;;;;;;15.35;100.00;97566.88;5050708;28;20111;-37
2023/01/03 11:33:43;;;;;;;4.45;2.80;;;;;;;15.50;100.00;97572.53;5057499;28;20088;-38
2023/01/03 11:36:19;;;;;;;4.07;2.15;;;;;;;15.16;100.00;97573.94;5059376;28;20076;-37
2023/01/03 11:38:57;;;;;;;2.85;2.30;;;;;;;15.24;100.00;97575.03;5054866;28;20520;-44
2023/01/03 11:41:46;;;;;;;3.65;2.40;;;;;;;14.91;100.00;97574.59;5055817;28;20084;-42
2023/01/03 11:44:32;;;;;;;4.32;2.50;;;;;;;15.17;100.00;97574.78;5052142;28;20556;-44
2023/01/03 11:47:11;;;;;;;4.82;2.38;;;;;;;15.35;100.00;97561.56;5054848;28;20088;-39
2023/01/03 11:49:51;;;;;;;4.15;2.30;;;;;;;15.41;100.00;97556.47;5062474;28;20087;-38
2023/01/03 11:52:27;;;;;;;4.05;2.58;;;;;;;15.28;100.00;97557.81;5062450;28;20088;-40
2023/01/03 11:55:15;;;;;;;3.83;2.70;;;;;;;14.91;100.00;97563.97;5055785;28;20080;-38
2023/01/03 11:57:51;;;;;;;4.13;2.42;;;;;;;14.99;100.00;97558.78;5057532;28;20546;-41
2023/01/03 12:00:28;;;;;;;4.38;2.38;;;;;;;15.09;100.00;97566.72;5052513;28;20106;-41
2023/01/03 12:03:07;;;;;;;4.03;2.35;;;;;;;15.24;100.00;97559.91;5049651;28;20084;-46
2023/01/03 12:05:44;;;;;;;4.07;2.40;;;;;;;14.93;100.00;97557.56;5053520;28;20080;-39
2023/01/03 12:08:48;;;;;;;3.05;1.98;;;;;;;15.03;100.00;97549.53;5049952;28;20091;-40
2023/01/03 12:11:34;;;;;;;2.97;1.80;;;;;;;14.41;100.00;97556.22;5052410;28;20088;-41
2023/01/03 12:14:10;;;;;;;5.75;1.55;;;;;;;14.94;100.00;97547.75;5063551;28;20083;-37
2023/01/03 12:16:42;;;;;;;3.00;1.83;;;;;;;14.57;100.00;97564.47;5060059;28;20083;-40
2023/01/03 12:19:26;;;;;;;2.58;1.70;;;;;;;14.28;100.00;97561.84;5056469;28;20072;-48
2023/01/03 12:21:58;;;;;;;2.60;1.67;;;;;;;14.46;100.00;97556.66;5052643;28;20398;-38
2023/01/03 12:24:33;;;;;;;2.70;1.80;;;;;;;14.43;100.00;97555.09;5056328;28;20037;-40
2023/01/03 12:27:04;;;;;;;7.47;2.35;;;;;;;14.77;100.00;97554.66;5050141;28;20057;-41
2023/01/03 12:29:43;;;;;;;2.42;1.67;;;;;;;14.81;100.00;97560.50;5053762;28;20084;-38
2023/01/03 12:32:16;;;;;;;4.15;2.03;;;;;;;14.40;100.00;97562.50;5048810;28;20072;-39
2023/01/03 12:34:48;;;;;;;2.90;1.95;;;;;;;14.85;100.00;97557.41;5054524;28;20091;-46
2023/01/03 12:37:20;;;;;;;4.30;2.00;;;;;;;15.11;100.00;97548.81;5049334;28;20072;-44
2023/01/03 12:39:54;;;;;;;3.47;1.77;;;;;;;14.81;100.00;97548.06;5053532;28;20505;-45
2023/01/03 12:42:29;;;;;;;3.13;1.88;;;;;;;15.23;100.00;97547.63;5055957;28;20088;-41
2023/01/03 12:45:04;;;;;;;4.30;2.10;;;;;;;15.07;100.00;97550.06;5058664;28;20076;-41
2023/01/03 12:47:37;;;;;;;3.10;1.67;;;;;;;15.26;100.00;97538.53;5054152;28;20095;-41
2023/01/03 12:50:14;;;;;;;4.30;2.00;;;;;;;15.27;100.00;97535.72;5052434;28;20831;-42
2023/01/03 12:52:43;;;;;;;5.50;1.83;;;;;;;15.43;100.00;97533.25;5051908;28;20079;-41
2023/01/03 12:55:19;;;;;;;4.07;1.90;;;;;;;15.21;100.00;97531.00;5048017;28;20068;-41